createdAt,value
2018-08-09T09:07:24.166Z,54.19
2018-08-09T09:08:24.143Z,54.67
2018-08-09T09:10:17.540Z,54.48
2018-08-09T09:11:17.540Z,54.28
2018-08-09T09:13:27.338Z,57.55
2018-08-09T09:14:26.010Z,54.16
2018-08-09T09:15:25.839Z,54.94
2018-08-09T09:16:33.963Z,55.98
2018-08-09T09:18:20.924Z,55.98
2018-08-09T09:20:42.967Z,56.65
2018-08-09T09:21:42.968Z,56.52
2018-08-09T09:22:42.972Z,56.46
2018-08-09T09:23:42.976Z,55.94
2018-08-09T09:24:43.000Z,57.62
2018-08-09T09:25:42.991Z,57.62
2018-08-09T09:26:42.996Z,56.85
2018-08-09T09:27:43.004Z,55.00
2018-08-09T09:28:43.011Z,55.00
2018-08-09T09:29:43.018Z,55.20
2018-08-09T09:30:43.026Z,55.88
2018-08-09T09:31:43.034Z,55.42
2018-08-09T09:32:43.041Z,55.42
2018-08-09T09:33:43.048Z,54.81
2018-08-09T09:34:43.055Z,55.13
2018-08-09T09:35:43.067Z,55.52
2018-08-09T09:36:43.072Z,55.04
2018-08-09T09:37:43.086Z,56.59
2018-08-09T09:38:43.089Z,56.13
2018-08-09T09:39:43.098Z,55.06
2018-08-09T09:40:43.117Z,53.89
2018-08-09T09:41:43.119Z,53.12
2018-08-09T09:42:43.123Z,52.66
2018-08-09T09:43:43.133Z,52.66
2018-08-09T09:44:43.145Z,52.66
2018-08-09T09:45:43.152Z,53.17
2018-08-09T09:46:43.161Z,52.20
2018-08-09T09:47:43.168Z,51.72
2018-08-09T09:48:43.178Z,52.50
2018-08-09T09:49:43.235Z,52.78
2018-08-09T09:50:43.203Z,52.50
2018-08-09T09:51:43.207Z,52.52
2018-08-09T09:52:43.217Z,51.84
2018-08-09T09:53:43.225Z,53.00
2018-08-09T09:54:43.236Z,51.75
2018-08-09T09:55:43.281Z,52.55
2018-08-09T09:56:43.263Z,51.48
2018-08-09T09:57:43.264Z,51.67
2018-08-09T09:58:43.274Z,54.00
2018-08-09T09:59:43.283Z,53.25
2018-08-09T10:00:43.297Z,52.47
2018-08-09T10:01:43.367Z,50.92
2018-08-09T10:02:43.313Z,51.01
2018-08-09T10:03:43.327Z,51.11
2018-08-09T10:04:43.335Z,51.62
2018-08-09T10:05:43.345Z,51.04
2018-08-09T10:06:43.353Z,50.56
2018-08-09T10:07:43.368Z,50.85
2018-08-09T10:08:43.377Z,49.97
2018-08-09T10:09:43.385Z,49.68
2018-08-09T10:10:43.397Z,49.78
2018-08-09T10:11:43.408Z,50.36
2018-08-09T10:12:43.438Z,50.68
2018-08-09T10:13:43.426Z,50.87
2018-08-09T10:14:43.459Z,49.99
2018-08-09T10:15:43.448Z,48.83
2018-08-09T10:16:43.459Z,48.80
2018-08-09T10:17:43.474Z,49.39
2018-08-09T10:18:43.479Z,50.46
2018-08-09T10:19:43.518Z,50.16
2018-08-09T10:20:43.499Z,50.34
2018-08-09T10:21:43.510Z,50.92
2018-08-09T10:22:43.520Z,50.92
2018-08-09T10:23:43.532Z,51.31
2018-08-09T10:24:43.542Z,51.11
2018-08-09T10:25:43.553Z,51.79
2018-08-09T10:26:43.561Z,51.60
2018-08-09T10:27:43.573Z,52.09
2018-08-09T10:28:43.583Z,51.97
2018-08-09T10:29:43.593Z,52.25
2018-08-09T10:30:43.602Z,54.29
2018-08-09T10:31:43.614Z,54.58
2018-08-09T10:32:43.623Z,53.78
2018-08-09T10:33:43.632Z,54.29
2018-08-09T10:34:43.646Z,55.73
2018-08-09T10:35:43.654Z,54.56
2018-08-09T10:36:43.665Z,54.66
2018-08-09T10:37:43.671Z,55.14
2018-08-09T10:38:43.681Z,55.33
2018-08-09T10:39:43.693Z,55.53
2018-08-09T10:40:43.700Z,56.98
2018-08-09T10:41:43.712Z,61.42
2018-08-09T10:42:43.756Z,63.17
2018-08-09T10:43:43.727Z,64.23
2018-08-09T10:44:43.741Z,67.63
2018-08-09T10:45:43.748Z,71.09
2018-08-09T10:46:43.758Z,73.90
2018-08-09T10:47:43.767Z,75.65
2018-08-09T10:48:43.776Z,75.61
2018-08-09T10:49:43.785Z,77.45
2018-08-09T10:50:43.795Z,79.88
2018-08-09T10:51:43.804Z,80.85
2018-08-09T10:52:43.816Z,79.97
2018-08-09T10:53:43.823Z,80.36
2018-08-09T10:54:43.833Z,81.13
2018-08-09T10:55:43.896Z,80.85
2018-08-09T10:56:43.851Z,80.46
2018-08-09T10:57:43.859Z,79.49
2018-08-09T10:58:43.868Z,80.80
2018-08-09T10:59:43.884Z,74.99
2018-08-09T11:00:43.887Z,74.41
2018-08-09T11:01:43.933Z,74.02
2018-08-09T11:02:43.904Z,74.90
2018-08-09T11:03:43.914Z,75.96
2018-08-09T11:04:43.933Z,75.09
2018-08-09T11:05:43.932Z,75.63
2018-08-09T11:06:43.942Z,73.60
2018-08-09T11:07:43.950Z,77.67
2018-08-09T11:08:43.972Z,77.37
2018-08-09T11:09:43.969Z,76.51
2018-08-09T11:10:43.978Z,77.09
2018-08-09T11:11:43.987Z,78.05
2018-08-09T11:12:43.996Z,81.35
2018-08-09T11:13:44.006Z,81.05
2018-08-09T11:14:44.012Z,83.00
2018-08-09T11:15:44.021Z,81.54
2018-08-09T11:16:44.032Z,82.60
2018-08-09T11:17:44.038Z,82.57
2018-08-09T11:18:44.046Z,83.09
2018-08-09T11:19:44.055Z,85.41
2018-08-09T11:20:44.064Z,86.68
2018-08-09T11:21:44.071Z,86.68
2018-08-09T11:22:44.086Z,86.77
2018-08-09T11:23:44.157Z,86.77
2018-08-09T11:24:44.098Z,87.06
2018-08-09T11:25:44.105Z,87.26
2018-08-09T11:26:44.117Z,87.93
2018-08-09T11:27:44.123Z,88.56
2018-08-09T11:28:44.133Z,88.46
2018-08-09T11:29:44.142Z,87.88
2018-08-09T11:30:44.150Z,86.91
2018-08-09T11:31:44.158Z,86.47
2018-08-09T11:32:44.168Z,85.89
2018-08-09T11:33:44.177Z,85.11
2018-08-09T11:34:44.186Z,84.24
2018-08-09T11:35:44.194Z,84.47
2018-08-09T11:36:44.204Z,83.60
2018-08-09T11:37:44.226Z,83.80
2018-08-09T11:38:44.220Z,83.22
2018-08-09T11:39:44.270Z,83.15
2018-08-09T11:40:44.237Z,83.94
2018-08-09T11:41:44.245Z,84.32
2018-08-09T11:42:44.255Z,78.25
2018-08-09T11:43:44.265Z,75.92
2018-08-09T11:44:44.282Z,76.79
2018-08-09T11:45:44.284Z,73.00
2018-08-09T11:46:44.293Z,74.46
2018-08-09T11:47:44.303Z,76.54
2018-08-09T11:48:44.313Z,75.27
2018-08-09T11:49:44.322Z,74.40
2018-08-09T11:50:44.333Z,74.11
2018-08-09T11:51:44.345Z,74.01
2018-08-09T11:52:44.352Z,69.96
2018-08-09T11:53:44.362Z,72.30
2018-08-09T11:54:44.391Z,74.15
2018-08-09T11:55:44.383Z,69.48
2018-08-09T11:56:44.421Z,68.80
2018-08-09T11:57:44.403Z,69.09
2018-08-09T11:58:44.416Z,67.44
2018-08-09T11:59:44.423Z,72.11
2018-08-09T12:00:44.432Z,71.62
2018-08-09T12:01:44.496Z,71.62
2018-08-09T12:02:44.451Z,72.39
2018-08-09T12:03:44.463Z,71.36
2018-08-09T12:04:44.478Z,69.42
2018-08-09T12:05:44.483Z,71.07
2018-08-09T12:06:44.495Z,75.64
2018-08-09T12:07:44.504Z,67.24
2018-08-09T12:08:44.516Z,67.05
2018-08-09T12:09:44.526Z,65.98
2018-08-09T12:10:44.544Z,63.45
2018-08-09T12:11:44.547Z,68.15
2018-08-09T12:12:44.559Z,63.45
2018-08-09T12:13:44.567Z,63.26
2018-08-09T12:14:44.577Z,66.99
2018-08-09T12:15:44.588Z,63.59
2018-08-09T12:16:44.597Z,65.53
2018-08-09T12:17:44.607Z,68.84
2018-08-09T12:18:44.617Z,69.51
2018-08-09T12:19:44.629Z,69.03
2018-08-09T12:20:44.668Z,66.50
2018-08-09T12:21:44.653Z,62.32
2018-08-09T12:22:44.660Z,65.92
2018-08-09T12:23:44.671Z,66.50
2018-08-09T12:24:44.682Z,66.89
2018-08-09T12:25:44.693Z,64.65
2018-08-09T12:26:44.705Z,62.51
2018-08-09T12:27:44.713Z,63.10
2018-08-09T12:28:44.726Z,64.17
2018-08-09T12:29:44.732Z,61.54
2018-08-09T12:30:44.744Z,60.38
2018-08-09T12:31:44.754Z,60.44
2018-08-09T12:32:44.763Z,60.15
2018-08-09T12:33:44.773Z,60.35
2018-08-09T12:34:44.785Z,63.17
2018-08-09T12:35:44.795Z,61.64
2018-08-09T12:36:44.864Z,66.21
2018-08-09T12:37:44.813Z,66.21
2018-08-09T12:38:44.824Z,64.95
2018-08-09T12:39:44.845Z,65.14
2018-08-09T12:40:44.846Z,61.74
2018-08-09T12:41:44.856Z,61.15
2018-08-09T12:42:44.867Z,60.18
2018-08-09T12:43:44.876Z,61.15
2018-08-09T12:44:44.889Z,59.41
2018-08-09T12:45:44.898Z,59.31
2018-08-09T12:46:44.912Z,59.99
2018-08-09T12:47:44.919Z,60.38
2018-08-09T12:48:44.931Z,60.96
2018-08-09T12:49:44.939Z,63.39
2018-08-09T12:50:44.990Z,62.71
2018-08-09T12:51:44.969Z,59.21
2018-08-09T12:52:44.971Z,58.72
2018-08-09T12:53:44.981Z,60.86
2018-08-09T12:54:44.991Z,63.78
2018-08-09T12:55:45.002Z,63.32
2018-08-09T12:56:45.012Z,63.62
2018-08-09T12:57:45.023Z,59.53
2018-08-09T12:58:45.036Z,60.31
2018-08-09T12:59:45.045Z,61.64
2018-08-09T13:00:45.054Z,64.29
2018-08-09T13:01:45.063Z,61.38
2018-08-09T13:02:45.074Z,59.72
2018-08-09T13:03:45.084Z,60.41
2018-08-09T13:04:45.099Z,59.43
2018-08-09T13:05:45.123Z,58.75
2018-08-09T13:06:45.114Z,58.85
2018-08-09T13:07:45.126Z,59.14
2018-08-09T13:08:45.146Z,60.11
2018-08-09T13:09:45.149Z,59.82
2018-08-09T13:10:45.161Z,59.82
2018-08-09T13:11:45.172Z,57.49
2018-08-09T13:12:45.183Z,57.10
2018-08-09T13:13:45.191Z,57.97
2018-08-09T13:14:45.204Z,59.33
2018-08-09T13:15:45.213Z,59.43
2018-08-09T13:16:45.223Z,59.23
2018-08-09T13:17:45.233Z,57.49
2018-08-09T13:18:45.242Z,59.33
2018-08-09T13:19:45.251Z,59.33
2018-08-09T13:20:45.263Z,60.89
2018-08-09T13:21:45.273Z,60.60
2018-08-09T13:22:45.285Z,60.60
2018-08-09T13:23:45.295Z,60.14
2018-08-09T13:24:45.304Z,61.21
2018-08-09T13:25:45.322Z,59.75
2018-08-09T13:26:45.327Z,58.46
2018-08-09T13:27:45.338Z,57.81
2018-08-09T13:28:45.351Z,58.00
2018-08-09T13:29:45.368Z,57.97
2018-08-09T13:30:45.370Z,57.71
2018-08-09T13:31:45.380Z,56.22
2018-08-09T13:32:45.395Z,58.07
2018-08-09T13:33:45.441Z,57.68
2018-08-09T13:34:45.411Z,56.61
2018-08-09T13:35:45.422Z,57.20
2018-08-09T13:36:45.432Z,59.14
2018-08-09T13:37:45.443Z,58.46
2018-08-09T13:38:45.460Z,58.75
2018-08-09T13:39:45.465Z,58.92
2018-08-09T13:40:45.473Z,58.65
2018-08-09T13:41:45.484Z,58.72
2018-08-09T13:42:45.496Z,58.14
2018-08-09T13:43:45.511Z,58.72
2018-08-09T13:44:45.517Z,59.01
2018-08-09T13:45:45.525Z,61.15
2018-08-09T13:46:45.603Z,65.23
2018-08-09T13:47:45.544Z,69.03
2018-08-09T13:48:45.556Z,70.68
2018-08-09T13:49:45.578Z,70.94
2018-08-09T13:50:45.576Z,69.77
2018-08-09T13:51:45.590Z,70.22
2018-08-09T13:52:45.645Z,72.07
2018-08-09T13:53:45.608Z,73.91
2018-08-09T13:54:45.620Z,73.97
2018-08-09T13:55:45.629Z,76.40
2018-08-09T13:56:45.643Z,78.54
2018-08-09T13:57:45.649Z,79.80
2018-08-09T13:58:45.659Z,80.87
2018-08-09T13:59:45.671Z,81.26
2018-08-09T14:00:45.678Z,81.74
2018-08-09T14:01:45.691Z,82.03
2018-08-09T14:02:45.697Z,82.87
2018-08-09T14:03:45.752Z,84.03
2018-08-09T14:04:45.714Z,83.06
2018-08-09T14:05:45.724Z,82.05
2018-08-09T14:06:45.742Z,81.66
2018-08-09T14:07:45.745Z,82.82
2018-08-09T14:08:45.756Z,83.50
2018-08-09T14:09:45.762Z,83.99
2018-08-09T14:10:45.816Z,85.02
2018-08-09T14:11:45.781Z,85.60
2018-08-09T14:12:45.795Z,85.54
2018-08-09T14:13:45.801Z,85.89
2018-08-09T14:14:45.810Z,85.21
2018-08-09T14:15:45.818Z,86.02
2018-08-09T14:16:45.829Z,84.82
2018-08-09T14:17:45.862Z,85.11
2018-08-09T14:18:45.848Z,85.50
2018-08-09T14:19:45.859Z,86.57
2018-08-09T14:20:45.866Z,85.69
2018-08-09T14:21:45.874Z,85.99
2018-08-09T14:22:45.887Z,87.54
2018-08-09T14:23:45.892Z,87.82
2018-08-09T14:24:45.969Z,88.99
2018-08-09T14:25:45.910Z,88.51
2018-08-09T14:26:45.919Z,87.44
2018-08-09T14:27:45.930Z,87.82
2018-08-09T14:28:45.940Z,86.47
2018-08-09T14:29:45.947Z,85.50
2018-08-09T14:30:45.955Z,86.08
2018-08-09T14:31:45.965Z,85.11
2018-08-09T14:32:45.975Z,85.02
2018-08-09T14:33:45.987Z,86.57
2018-08-09T14:34:45.991Z,83.56
2018-08-09T14:35:46.003Z,84.05
2018-08-09T14:36:46.011Z,85.17
2018-08-09T14:37:46.035Z,85.07
2018-08-09T14:38:46.077Z,85.07
2018-08-09T14:39:46.042Z,84.49
2018-08-09T14:40:46.046Z,85.21
2018-08-09T14:41:46.056Z,86.08
2018-08-09T14:42:46.068Z,85.21
2018-08-09T14:43:46.074Z,85.11
2018-08-09T14:44:46.082Z,84.63
2018-08-09T14:45:46.090Z,84.63
2018-08-09T14:46:46.101Z,85.99
2018-08-09T14:47:46.158Z,85.79
2018-08-09T14:48:46.203Z,86.37
2018-08-09T14:49:46.124Z,87.34
2018-08-09T14:50:46.135Z,88.02
2018-08-09T14:51:46.146Z,86.37
2018-08-09T14:52:46.153Z,86.66
2018-08-09T14:53:46.176Z,86.08
2018-08-09T14:54:46.176Z,87.15
2018-08-09T14:55:46.186Z,87.24
2018-08-09T14:56:46.190Z,85.89
2018-08-09T14:57:46.209Z,87.44
2018-08-09T14:58:46.207Z,86.08
2018-08-09T14:59:46.259Z,84.82
2018-08-09T15:00:46.229Z,86.08
2018-08-09T15:01:46.242Z,86.66
2018-08-09T15:02:46.246Z,88.21
2018-08-09T15:03:46.255Z,85.75
2018-08-09T15:04:46.263Z,86.52
2018-08-09T15:05:46.278Z,85.75
2018-08-09T15:06:46.281Z,86.13
2018-08-09T15:07:46.289Z,85.07
2018-08-09T15:08:46.297Z,86.13
2018-08-09T15:09:46.305Z,86.13
2018-08-09T15:10:46.318Z,86.18
2018-08-09T15:11:46.325Z,85.07
2018-08-09T15:12:46.332Z,85.36
2018-08-09T15:13:46.345Z,83.91
2018-08-09T15:14:46.350Z,83.42
2018-08-09T15:15:46.359Z,83.33
2018-08-09T15:16:46.369Z,83.52
2018-08-09T15:17:46.378Z,82.26
2018-08-09T15:18:46.408Z,82.94
2018-08-09T15:19:46.396Z,82.35
2018-08-09T15:20:46.410Z,84.10
2018-08-09T15:21:46.412Z,84.10
2018-08-09T15:22:46.425Z,80.80
2018-08-09T15:23:46.433Z,79.55
2018-08-09T15:24:46.439Z,79.74
2018-08-09T15:25:46.458Z,79.32
2018-08-09T15:26:46.457Z,80.62
2018-08-09T15:27:46.466Z,80.90
2018-08-09T15:28:46.476Z,79.93
2018-08-09T15:29:46.501Z,80.22
2018-08-09T15:30:46.537Z,79.93
2018-08-09T15:31:46.501Z,78.97
2018-08-09T15:32:46.509Z,79.25
2018-08-09T15:33:46.518Z,80.62
2018-08-09T15:34:46.544Z,78.19
2018-08-09T15:35:46.541Z,77.12
2018-08-09T15:36:46.546Z,76.25
2018-08-09T15:37:46.554Z,75.67
2018-08-09T15:38:46.566Z,75.57
2018-08-09T15:39:46.579Z,77.03
2018-08-09T15:40:46.582Z,75.81
2018-08-09T15:41:46.590Z,76.29
2018-08-09T15:42:46.599Z,75.51
2018-08-09T15:43:46.612Z,76.87
2018-08-09T15:44:46.616Z,75.96
2018-08-09T15:45:46.625Z,75.57
2018-08-09T15:46:46.636Z,75.03
2018-08-09T15:47:46.717Z,75.23
2018-08-09T15:48:46.661Z,74.64
2018-08-09T15:49:46.663Z,74.74
2018-08-09T15:50:46.673Z,73.77
2018-08-09T15:51:46.682Z,74.84
2018-08-09T15:52:46.692Z,73.28
2018-08-09T15:53:46.700Z,74.26
2018-08-09T15:54:46.709Z,74.64
2018-08-09T15:55:46.716Z,73.38
2018-08-09T15:56:46.736Z,73.38
2018-08-09T15:57:46.759Z,74.35
2018-08-09T15:58:46.748Z,74.45
2018-08-09T15:59:46.758Z,73.52
2018-08-09T16:00:46.765Z,74.10
2018-08-09T16:01:46.771Z,75.74
2018-08-09T16:02:46.783Z,75.55
2018-08-09T16:03:46.789Z,74.29
2018-08-09T16:04:46.811Z,72.97
2018-08-09T16:05:46.809Z,72.19
2018-08-09T16:06:46.817Z,71.32
2018-08-09T16:07:46.849Z,72.93
2018-08-09T16:08:46.838Z,72.55
2018-08-09T16:09:46.845Z,72.06
2018-08-09T16:10:46.855Z,72.45
2018-08-09T16:11:46.867Z,72.93
2018-08-09T16:12:46.876Z,73.84
2018-08-09T16:13:46.886Z,73.80
2018-08-09T16:14:46.925Z,72.55
2018-08-09T16:15:46.906Z,73.52
2018-08-09T16:16:46.913Z,73.61
2018-08-09T16:17:46.921Z,72.55
2018-08-09T16:18:46.932Z,73.22
2018-08-09T16:19:46.942Z,73.03
2018-08-09T16:20:46.950Z,72.16
2018-08-09T16:21:46.958Z,72.45
2018-08-09T16:22:46.991Z,71.86
2018-08-09T16:23:46.980Z,70.51
2018-08-09T16:24:46.989Z,70.21
2018-08-09T16:25:47.007Z,71.64
2018-08-09T16:26:47.005Z,71.64
2018-08-09T16:27:47.015Z,70.96
2018-08-09T16:28:47.028Z,71.73
2018-08-09T16:29:47.033Z,71.38
2018-08-09T16:30:47.046Z,70.31
2018-08-09T16:31:47.053Z,69.44
2018-08-09T16:32:47.063Z,70.03
2018-08-09T16:33:47.072Z,70.80
2018-08-09T16:34:47.100Z,70.37
2018-08-09T16:35:47.091Z,70.31
2018-08-09T16:36:47.103Z,69.41
2018-08-09T16:37:47.108Z,68.82
2018-08-09T16:38:47.118Z,68.44
2018-08-09T16:39:47.127Z,68.34
2018-08-09T16:40:47.135Z,68.73
2018-08-09T16:41:47.151Z,68.82
2018-08-09T16:42:47.159Z,69.02
2018-08-09T16:43:47.172Z,68.92
2018-08-09T16:44:47.172Z,69.41
2018-08-09T16:45:47.180Z,69.60
2018-08-09T16:46:47.190Z,69.70
2018-08-09T16:47:47.202Z,70.28
2018-08-09T16:48:47.211Z,70.76
2018-08-09T16:49:47.218Z,70.86
2018-08-09T16:50:47.228Z,70.76
2018-08-09T16:51:47.240Z,69.12
2018-08-09T16:52:47.246Z,69.50
2018-08-09T16:53:47.256Z,69.21
2018-08-09T16:54:47.264Z,69.27
2018-08-09T16:55:47.272Z,68.89
2018-08-09T16:56:47.286Z,68.99
2018-08-09T16:57:47.292Z,68.89
2018-08-09T16:58:47.300Z,69.18
2018-08-09T16:59:47.306Z,69.18
2018-08-09T17:00:47.316Z,69.37
2018-08-09T17:01:47.325Z,69.47
2018-08-09T17:02:47.384Z,69.79
2018-08-09T17:03:47.343Z,69.37
2018-08-09T17:04:47.352Z,69.21
2018-08-09T17:05:47.361Z,68.99
2018-08-09T17:06:47.369Z,68.99
2018-08-09T17:07:47.378Z,69.18
2018-08-09T17:08:47.418Z,69.18
2018-08-09T17:09:47.401Z,69.37
2018-08-09T17:10:47.407Z,69.95
2018-08-09T17:11:47.413Z,69.67
2018-08-09T17:12:47.423Z,70.63
2018-08-09T17:13:47.432Z,69.95
2018-08-09T17:14:47.449Z,69.27
2018-08-09T17:15:47.451Z,69.95
2018-08-09T17:16:47.459Z,70.05
2018-08-09T17:17:47.480Z,69.85
2018-08-09T17:18:47.481Z,69.95
2018-08-09T17:19:47.491Z,69.95
2018-08-09T17:20:47.501Z,69.67
2018-08-09T17:21:47.505Z,69.41
2018-08-09T17:22:47.515Z,69.79
2018-08-09T17:23:47.523Z,69.89
2018-08-09T17:24:47.548Z,69.70
2018-08-09T17:25:47.544Z,69.21
2018-08-09T17:26:47.554Z,69.12
2018-08-09T17:27:47.557Z,68.92
2018-08-09T17:28:47.592Z,69.31
2018-08-09T17:29:47.573Z,69.02
2018-08-09T17:30:47.591Z,68.73
2018-08-09T17:31:47.599Z,68.73
2018-08-09T17:32:47.603Z,68.73
2018-08-09T17:33:47.612Z,68.63
2018-08-09T17:34:47.620Z,69.02
2018-08-09T17:35:47.630Z,68.82
2018-08-09T17:36:47.639Z,69.60
2018-08-09T17:37:47.648Z,69.02
2018-08-09T17:38:47.656Z,68.63
2018-08-09T17:39:47.669Z,69.12
2018-08-09T17:42:09.762Z,68.73
2018-08-09T17:43:09.760Z,68.73
2018-08-09T17:45:03.189Z,68.73
2018-08-09T17:46:03.197Z,68.82
2018-08-09T17:47:57.628Z,68.54
2018-08-09T17:48:57.619Z,69.12
2018-08-09T17:49:57.634Z,68.15
2018-08-09T17:50:57.638Z,68.63
2018-08-09T17:51:57.649Z,68.63
2018-08-09T17:52:57.655Z,68.57
2018-08-09T17:53:57.666Z,67.99
2018-08-09T17:54:57.675Z,68.18
2018-08-09T17:55:57.685Z,67.89
2018-08-09T17:56:57.693Z,67.99
2018-08-09T17:57:57.701Z,69.06
2018-08-09T17:58:57.713Z,67.89
2018-08-09T17:59:57.719Z,67.89
2018-08-09T18:00:57.729Z,68.18
2018-08-09T18:01:57.738Z,66.99
2018-08-09T18:02:57.750Z,66.53
2018-08-09T18:03:57.764Z,67.69
2018-08-09T18:04:57.793Z,66.53
2018-08-09T18:05:57.772Z,65.85
2018-08-09T18:06:57.784Z,65.75
2018-08-09T18:07:57.794Z,67.50
2018-08-09T18:08:57.802Z,65.85
2018-08-09T18:09:57.811Z,64.95
2018-08-09T18:10:57.822Z,65.66
2018-08-09T18:11:57.831Z,64.75
2018-08-09T18:12:57.839Z,65.34
2018-08-09T18:13:57.849Z,65.43
2018-08-09T18:14:57.856Z,64.85
2018-08-09T18:15:57.868Z,65.24
2018-08-09T18:16:57.875Z,66.30
2018-08-09T18:17:57.882Z,64.27
2018-08-09T18:18:57.893Z,64.47
2018-08-09T18:19:57.901Z,65.05
2018-08-09T18:20:57.910Z,65.34
2018-08-09T18:21:57.919Z,65.63
2018-08-09T18:22:57.929Z,64.75
2018-08-09T18:23:57.969Z,65.05
2018-08-09T18:24:57.945Z,65.05
2018-08-09T18:25:57.957Z,65.72
2018-08-09T18:26:57.966Z,65.24
2018-08-09T18:27:57.975Z,65.72
2018-08-09T18:28:57.983Z,66.50
2018-08-09T18:29:57.994Z,66.50
2018-08-09T18:30:58.053Z,66.30
2018-08-09T18:31:58.010Z,66.30
2018-08-09T18:32:58.077Z,67.08
2018-08-09T18:33:58.029Z,66.99
2018-08-09T18:34:58.038Z,67.37
2018-08-09T18:35:58.046Z,68.15
2018-08-09T18:36:58.055Z,69.12
2018-08-09T18:37:58.066Z,70.47
2018-08-09T18:38:58.078Z,70.92
2018-08-09T18:39:58.085Z,71.50
2018-08-09T18:40:58.090Z,71.89
2018-08-09T18:41:58.100Z,71.89
2018-08-09T18:42:58.120Z,71.80
2018-08-09T18:43:58.118Z,72.34
2018-08-09T18:44:58.124Z,72.15
2018-08-09T18:45:58.133Z,72.15
2018-08-09T18:46:58.143Z,72.34
2018-08-09T18:47:58.153Z,71.86
2018-08-09T18:48:58.166Z,71.47
2018-08-09T18:49:58.170Z,69.89
2018-08-09T18:50:58.179Z,70.47
2018-08-09T18:51:58.189Z,71.44
2018-08-09T18:52:58.195Z,71.40
2018-08-09T18:53:58.204Z,70.53
2018-08-09T18:54:58.215Z,70.92
2018-08-09T18:55:58.221Z,71.30
2018-08-09T18:56:58.230Z,71.66
2018-08-09T18:57:58.237Z,71.84
2018-08-09T18:58:58.247Z,72.42
2018-08-09T18:59:58.256Z,73.30
2018-08-09T19:00:58.267Z,73.88
2018-08-09T19:01:58.272Z,74.27
2018-08-09T19:02:58.281Z,74.07
2018-08-09T19:03:58.288Z,74.85
2018-08-09T19:06:21.382Z,75.04
2018-08-09T19:07:30.056Z,74.81
2018-08-09T19:09:25.853Z,75.58
2018-08-09T19:10:15.888Z,76.16
2018-08-09T19:11:15.826Z,75.87
2018-08-09T19:12:15.833Z,75.68
2018-08-09T19:13:15.848Z,76.26
2018-08-09T19:14:15.849Z,76.35
2018-08-09T19:15:15.859Z,76.42
2018-08-09T19:16:15.866Z,76.80
2018-08-09T19:17:15.872Z,77.28
2018-08-09T19:18:15.879Z,77.00
2018-08-09T19:19:15.892Z,76.67
2018-08-09T19:20:15.897Z,77.25
2018-08-09T19:21:15.905Z,76.67
2018-08-09T19:22:15.913Z,77.15
2018-08-09T19:23:16.068Z,77.63
2018-08-09T19:24:15.926Z,77.21
2018-08-09T19:25:15.936Z,76.92
2018-08-09T19:26:15.942Z,77.01
2018-08-09T19:27:15.991Z,77.11
2018-08-09T19:28:15.955Z,77.30
2018-08-09T19:29:15.965Z,77.40
2018-08-09T19:30:15.972Z,77.59
2018-08-09T19:31:15.980Z,78.17
2018-08-09T19:32:15.987Z,77.78
2018-08-09T19:33:17.892Z,77.50
2018-08-09T19:34:16.000Z,77.98
2018-08-09T19:35:16.009Z,77.98
2018-08-09T19:36:16.063Z,78.08
2018-08-09T19:37:16.027Z,78.46
2018-08-09T19:38:16.033Z,77.59
2018-08-09T19:40:39.123Z,77.50
2018-08-09T19:41:47.955Z,77.69
2018-08-09T19:43:33.519Z,77.59
2018-08-09T19:44:33.522Z,77.88
2018-08-09T19:46:56.632Z,77.11
2018-08-09T19:47:56.614Z,77.21
2018-08-09T19:48:56.594Z,77.21
2018-08-09T19:49:56.601Z,76.15
2018-08-09T19:50:56.621Z,75.76
2018-08-09T19:51:56.616Z,75.34
2018-08-09T19:52:56.623Z,75.34
2018-08-09T19:53:56.633Z,75.82
2018-08-09T19:56:19.725Z,75.53
2018-08-09T19:57:19.717Z,75.53
2018-08-09T19:58:20.166Z,75.43
2018-08-09T19:59:28.364Z,75.62
2018-08-09T20:01:14.498Z,74.57
2018-08-09T20:03:37.226Z,73.11
2018-08-09T20:04:37.217Z,72.60
2018-08-09T20:05:37.225Z,71.64
2018-08-09T20:06:37.234Z,71.34
2018-08-09T20:07:37.237Z,71.73
2018-08-09T20:08:37.243Z,71.73
2018-08-09T20:09:37.250Z,71.73
2018-08-09T20:10:37.271Z,71.64
2018-08-09T20:11:37.273Z,71.54
2018-08-09T20:12:37.269Z,71.60
2018-08-09T20:13:37.279Z,72.37
2018-08-09T20:14:37.282Z,72.79
2018-08-09T20:15:37.293Z,72.18
2018-08-09T20:16:37.297Z,71.79
2018-08-09T20:19:14.297Z,71.92
2018-08-09T20:20:14.187Z,71.64
2018-08-09T20:22:07.510Z,72.31
